createdAt,value
2019-02-27T00:00:50.006Z,101670.84
2019-02-27T00:05:54.142Z,101654.02
2019-02-27T00:10:58.383Z,101666.73
2019-02-27T00:16:02.560Z,101663.70
2019-02-27T00:21:10.003Z,101663.70
2019-02-27T00:26:13.151Z,101662.22
2019-02-27T00:31:17.404Z,101656.54
2019-02-27T00:36:21.445Z,101643.23
2019-02-27T00:41:25.663Z,101643.23
2019-02-27T00:46:29.733Z,101649.00
2019-02-27T00:51:33.894Z,101648.02
2019-02-27T00:56:38.191Z,101664.56
2019-02-27T01:01:42.347Z,101665.59
2019-02-27T01:06:47.598Z,101661.20
2019-02-27T01:11:52.512Z,101656.85
2019-02-27T01:16:56.592Z,101649.77
2019-02-27T01:22:00.652Z,101641.30
2019-02-27T01:27:05.401Z,101644.55
2019-02-27T01:32:09.564Z,101627.05
2019-02-27T01:37:13.705Z,101627.61
2019-02-27T01:42:17.864Z,101620.92
2019-02-27T01:47:22.019Z,101620.92
2019-02-27T01:52:26.094Z,101601.30
2019-02-27T01:57:30.256Z,101595.13
2019-02-27T02:02:34.901Z,101578.55
2019-02-27T02:07:40.843Z,101578.55
2019-02-27T02:12:46.855Z,101577.28
2019-02-27T02:18:24.411Z,101577.28
2019-02-27T02:24:01.265Z,101568.55
2019-02-27T02:30:01.713Z,101567.67
2019-02-27T02:36:05.722Z,101567.67
2019-02-27T02:41:52.539Z,101552.09
2019-02-27T02:47:21.514Z,101558.86
2019-02-27T02:52:41.708Z,101551.73
2019-02-27T02:58:17.361Z,101559.41
2019-02-27T03:03:36.186Z,101558.14
2019-02-27T03:09:14.659Z,101558.14
2019-02-27T03:14:54.624Z,101554.79
2019-02-27T03:20:35.717Z,101543.23
2019-02-27T03:25:51.451Z,101545.58
2019-02-27T03:31:16.022Z,101540.27
2019-02-27T03:37:13.137Z,101545.26
2019-02-27T03:42:46.445Z,101545.26
2019-02-27T03:48:07.028Z,101547.99
2019-02-27T03:53:31.365Z,101540.39
2019-02-27T03:59:12.677Z,101542.27
2019-02-27T04:05:13.293Z,101540.12
2019-02-27T04:10:17.469Z,101537.08
2019-02-27T04:15:21.584Z,101537.08
2019-02-27T04:20:25.653Z,101530.76
2019-02-27T04:25:31.561Z,101530.36
2019-02-27T04:30:35.605Z,101527.88
2019-02-27T04:35:40.201Z,101530.16
2019-02-27T04:40:44.794Z,101527.40
2019-02-27T04:45:49.045Z,101527.40
2019-02-27T04:50:53.127Z,101518.54
2019-02-27T04:55:57.213Z,101520.48
2019-02-27T05:01:01.454Z,101525.46
2019-02-27T05:06:05.582Z,101525.46
2019-02-27T05:11:13.954Z,101517.00
2019-02-27T05:16:15.589Z,101515.78
2019-02-27T05:21:19.791Z,101515.78
2019-02-27T05:26:27.081Z,101511.42
2019-02-27T05:31:29.763Z,101508.81
2019-02-27T05:36:33.814Z,101502.57
2019-02-27T05:41:38.143Z,101501.22
2019-02-27T05:46:42.241Z,101499.45
2019-02-27T05:51:46.401Z,101494.23
2019-02-27T05:56:50.494Z,101491.54
2019-02-27T06:01:54.605Z,101491.54
2019-02-27T06:06:58.739Z,101486.28
2019-02-27T06:12:06.563Z,101478.22
2019-02-27T06:17:10.102Z,101478.22
2019-02-27T06:22:14.451Z,101476.56
2019-02-27T06:27:18.502Z,101476.56
2019-02-27T06:32:22.639Z,101476.64
2019-02-27T06:37:26.836Z,101475.34
2019-02-27T06:42:31.023Z,101482.92
2019-02-27T06:47:35.577Z,101479.45
2019-02-27T06:52:42.487Z,101482.13
2019-02-27T06:57:46.341Z,101482.13
2019-02-27T07:02:55.118Z,101474.63
2019-02-27T07:07:56.385Z,101474.63
2019-02-27T07:13:00.438Z,101458.81
2019-02-27T07:18:06.098Z,101470.71
2019-02-27T07:23:10.436Z,101477.51
2019-02-27T07:28:14.467Z,101470.79
2019-02-27T07:33:18.558Z,101464.55
2019-02-27T07:38:22.594Z,101464.55
2019-02-27T07:43:26.637Z,101457.27
2019-02-27T07:48:30.690Z,101463.11
2019-02-27T07:53:35.095Z,101472.89
2019-02-27T07:58:39.142Z,101472.89
2019-02-27T08:03:45.584Z,101476.61
2019-02-27T08:08:49.039Z,101475.34
2019-02-27T08:13:53.079Z,101475.34
2019-02-27T08:18:57.108Z,101449.12
2019-02-27T08:24:05.389Z,101449.12
2019-02-27T08:29:06.963Z,101445.17
2019-02-27T08:34:11.012Z,101426.48
2019-02-27T08:39:15.035Z,101426.48
2019-02-27T08:44:19.083Z,101423.64
2019-02-27T08:49:24.977Z,101423.64
2019-02-27T08:54:31.918Z,101415.39
2019-02-27T08:59:36.918Z,101415.39
2019-02-27T09:04:42.895Z,101400.75
2019-02-27T09:09:51.143Z,101390.05
2019-02-27T09:14:52.088Z,101398.99
2019-02-27T09:19:56.133Z,101395.03
2019-02-27T09:25:00.344Z,101400.42
2019-02-27T09:30:05.203Z,101402.91
2019-02-27T09:35:09.702Z,101392.02
2019-02-27T09:40:16.085Z,101380.61
2019-02-27T09:45:25.414Z,101362.81
2019-02-27T09:50:37.304Z,101362.81
2019-02-27T09:55:41.503Z,101351.88
2019-02-27T10:00:47.756Z,101351.88
2019-02-27T10:05:51.836Z,101346.33
2019-02-27T10:10:56.008Z,101338.52
2019-02-27T10:16:01.330Z,101338.34
2019-02-27T10:21:05.945Z,101338.34
2019-02-27T10:26:10.050Z,101322.38
2019-02-27T10:31:14.216Z,101311.00
2019-02-27T10:36:18.330Z,101297.72
2019-02-27T10:41:22.438Z,101289.40
2019-02-27T10:46:26.668Z,101284.41
2019-02-27T10:51:30.829Z,101280.30
2019-02-27T10:56:35.038Z,101264.56
2019-02-27T11:01:39.367Z,101269.62
2019-02-27T11:06:45.149Z,101259.41
2019-02-27T11:11:53.747Z,101259.96
2019-02-27T11:16:55.126Z,101259.96
2019-02-27T11:21:59.279Z,101245.94
2019-02-27T11:27:06.200Z,101245.94
2019-02-27T11:32:09.395Z,101239.07
2019-02-27T11:37:14.317Z,101224.83
2019-02-27T11:42:19.262Z,101222.27
2019-02-27T11:47:23.437Z,101206.24
2019-02-27T11:52:28.717Z,101206.24
2019-02-27T11:57:33.137Z,101180.96
2019-02-27T12:02:37.994Z,101172.91
2019-02-27T12:07:42.252Z,101167.94
2019-02-27T12:12:46.443Z,101159.80
2019-02-27T12:17:50.637Z,101159.80
2019-02-27T12:22:54.951Z,101147.21
2019-02-27T12:27:59.026Z,101147.21
2019-02-27T12:33:03.096Z,101132.89
2019-02-27T12:38:08.452Z,101123.04
2019-02-27T12:43:17.391Z,101123.04
2019-02-27T12:48:18.514Z,101102.14
2019-02-27T12:53:22.728Z,101088.69
2019-02-27T12:58:26.819Z,101077.86
2019-02-27T13:03:30.865Z,101073.30
2019-02-27T13:08:35.098Z,101070.47
2019-02-27T13:13:39.309Z,101050.04
2019-02-27T13:18:43.504Z,101045.38
2019-02-27T13:23:47.535Z,101045.38
2019-02-27T13:28:51.691Z,101045.20
2019-02-27T13:33:55.716Z,101012.66
2019-02-27T13:38:59.808Z,101012.66
2019-02-27T13:44:03.993Z,100998.96
2019-02-27T13:49:08.241Z,100993.30
2019-02-27T13:54:12.282Z,100993.30
2019-02-27T13:59:16.301Z,100970.25
2019-02-27T14:04:22.641Z,100970.25
2019-02-27T14:09:26.241Z,100941.95
2019-02-27T14:14:30.552Z,100934.06
2019-02-27T14:19:36.445Z,100928.41
2019-02-27T14:24:40.745Z,100927.33
2019-02-27T14:29:44.809Z,100927.33
2019-02-27T14:34:48.817Z,100919.39
2019-02-27T14:39:52.919Z,100912.34
2019-02-27T14:44:56.924Z,100907.92
2019-02-27T14:50:00.992Z,100897.25
2019-02-27T14:55:05.731Z,100897.25
2019-02-27T15:00:26.116Z,100879.98
2019-02-27T15:05:30.614Z,100865.17
2019-02-27T15:10:34.647Z,100856.23
2019-02-27T15:16:31.445Z,100840.45
2019-02-27T15:21:35.542Z,100845.29
2019-02-27T15:26:45.235Z,100845.29
2019-02-27T15:31:45.429Z,100831.64
2019-02-27T15:36:49.753Z,100831.64
2019-02-27T15:41:53.923Z,100813.09
2019-02-27T15:46:58.126Z,100814.64
2019-02-27T15:52:06.617Z,100803.39
2019-02-27T15:57:08.058Z,100778.95
2019-02-27T16:02:12.181Z,100786.00
2019-02-27T16:07:16.297Z,100763.08
2019-02-27T16:12:20.371Z,100768.30
2019-02-27T16:17:24.479Z,100769.74
2019-02-27T16:22:31.394Z,100766.57
2019-02-27T16:27:35.367Z,100765.23
2019-02-27T16:32:40.247Z,100760.09
2019-02-27T16:37:44.505Z,100752.70
2019-02-27T16:42:48.658Z,100743.86
2019-02-27T16:47:54.040Z,100743.86
2019-02-27T16:52:58.857Z,100740.00
2019-02-27T16:58:03.368Z,100740.00
2019-02-27T17:03:12.815Z,100734.51
2019-02-27T17:08:13.498Z,100734.51
2019-02-27T17:13:17.607Z,100730.12
2019-02-27T17:18:27.921Z,100698.25
2019-02-27T17:23:27.562Z,100688.70
2019-02-27T17:28:31.623Z,100701.66
2019-02-27T17:33:37.983Z,100696.42
2019-02-27T17:38:41.609Z,100690.45
2019-02-27T17:43:45.694Z,100676.77
2019-02-27T17:48:49.739Z,100676.77
2019-02-27T17:53:55.075Z,100674.03
2019-02-27T17:58:59.951Z,100669.98
2019-02-27T18:04:04.203Z,100656.63
2019-02-27T18:09:09.952Z,100656.63
2019-02-27T18:14:14.038Z,100646.81
2019-02-27T18:19:18.181Z,100635.77
2019-02-27T18:50:48.024Z,100573.89
2019-02-27T18:55:52.299Z,100580.49
2019-02-27T19:00:56.627Z,100577.94
2019-02-27T19:06:00.834Z,100577.20
2019-02-27T19:11:05.104Z,100569.99
2019-02-27T19:16:09.216Z,100560.78
2019-02-27T19:21:13.391Z,100552.67
2019-02-27T19:26:17.550Z,100547.06
2019-02-27T19:31:21.758Z,100526.48
2019-02-27T19:36:30.521Z,100538.47
2019-02-27T19:41:31.761Z,100519.48
2019-02-27T19:46:35.887Z,100518.61
2019-02-27T19:51:40.066Z,100513.09
2019-02-27T19:56:44.174Z,100513.09
2019-02-27T20:01:49.279Z,100501.91
2019-02-27T20:06:53.525Z,100493.77
2019-02-27T20:11:57.740Z,100471.64
2019-02-27T20:17:02.205Z,100467.42
2019-02-27T20:22:08.535Z,100479.05
2019-02-27T20:27:12.666Z,100469.27
2019-02-27T20:32:16.784Z,100456.88
2019-02-27T20:37:20.869Z,100446.70
2019-02-27T20:42:25.056Z,100442.19
2019-02-27T20:47:29.111Z,100442.19
2019-02-27T20:52:34.015Z,100439.12
2019-02-27T20:57:39.523Z,100435.03
2019-02-27T21:02:43.954Z,100425.09
2019-02-27T21:07:48.082Z,100420.92
2019-02-27T21:12:54.247Z,100401.25
2019-02-27T21:17:58.765Z,100407.39
2019-02-27T21:23:03.097Z,100390.02
2019-02-27T21:28:07.916Z,100385.34
2019-02-27T21:33:12.130Z,100350.20
2019-02-27T21:38:16.791Z,100356.39
2019-02-27T21:43:25.139Z,100358.39
2019-02-27T21:48:27.876Z,100358.39
2019-02-27T21:53:31.919Z,100316.83
2019-02-27T21:58:36.001Z,100313.53
2019-02-27T22:03:40.175Z,100315.71
2019-02-27T22:08:44.282Z,100308.61
2019-02-27T22:13:48.464Z,100308.61
2019-02-27T22:18:52.489Z,100304.94
2019-02-27T22:23:56.707Z,100280.95
2019-02-27T22:29:00.819Z,100285.78
2019-02-27T22:34:10.666Z,100287.63
2019-02-27T22:39:14.821Z,100287.63
2019-02-27T22:44:18.908Z,100279.55
2019-02-27T22:49:23.020Z,100270.34
2019-02-27T22:54:27.056Z,100250.30
2019-02-27T22:59:31.096Z,100254.92
2019-02-27T23:04:35.299Z,100242.43
2019-02-27T23:09:39.793Z,100235.81
2019-02-27T23:14:44.236Z,100235.81
2019-02-27T23:19:48.672Z,100235.81
2019-02-27T23:24:52.707Z,100235.81
2019-02-27T23:29:56.751Z,100226.95
2019-02-27T23:35:00.821Z,100231.98
2019-02-27T23:40:05.642Z,100220.05
2019-02-27T23:45:10.933Z,100220.05
2019-02-27T23:50:15.348Z,100218.50
2019-02-27T23:55:19.357Z,100207.68
